createdAt,value
2018-07-24T00:01:55.940Z,24.37
2018-07-24T00:04:24.200Z,24.27
2018-07-24T00:06:52.290Z,24.29
2018-07-24T00:09:20.421Z,24.34
2018-07-24T00:11:48.835Z,24.70
2018-07-24T00:14:16.970Z,25.02
2018-07-24T00:16:45.149Z,24.77
2018-07-24T00:19:13.270Z,24.74
2018-07-24T00:21:41.390Z,24.62
2018-07-24T00:24:09.599Z,24.17
2018-07-24T00:26:37.934Z,23.72
2018-07-24T00:29:06.166Z,23.47
2018-07-24T00:31:34.337Z,23.73
2018-07-24T00:34:02.442Z,23.80
2018-07-24T00:36:30.522Z,24.04
2018-07-24T00:38:58.581Z,23.56
2018-07-24T00:41:27.466Z,23.41
2018-07-24T00:43:55.592Z,23.23
2018-07-24T00:46:23.694Z,23.33
2018-07-24T00:48:51.804Z,23.04
2018-07-24T00:51:19.948Z,23.70
2018-07-24T00:53:48.150Z,23.89
2018-07-24T00:56:17.027Z,23.39
2018-07-24T00:58:45.147Z,23.30
2018-07-24T01:01:13.421Z,23.02
2018-07-24T01:03:41.593Z,23.46
2018-07-24T01:06:09.658Z,23.12
2018-07-24T01:08:37.762Z,23.29
2018-07-24T01:11:05.858Z,23.39
2018-07-24T01:13:34.371Z,23.82
2018-07-24T01:16:02.993Z,24.14
2018-07-24T01:18:31.159Z,23.65
2018-07-24T01:20:59.370Z,23.38
2018-07-24T01:23:27.480Z,23.33
2018-07-24T01:25:55.614Z,22.99
2018-07-24T01:28:23.829Z,23.29
2018-07-24T01:30:51.942Z,22.98
2018-07-24T01:33:20.091Z,23.42
2018-07-24T01:35:48.973Z,23.84
2018-07-24T01:38:17.279Z,23.95
2018-07-24T01:40:45.648Z,23.90
2018-07-24T01:43:13.906Z,23.90
2018-07-24T01:45:42.702Z,24.10
2018-07-24T01:48:11.104Z,23.72
2018-07-24T01:50:39.499Z,23.56
2018-07-24T01:53:07.874Z,23.42
2018-07-24T01:55:36.470Z,23.69
2018-07-24T01:58:04.764Z,23.61
2018-07-24T02:00:33.102Z,23.67
2018-07-24T02:03:01.260Z,23.68
2018-07-24T02:05:29.459Z,23.61
2018-07-24T02:07:57.795Z,23.73
2018-07-24T02:10:25.981Z,23.55
2018-07-24T02:12:54.185Z,23.50
2018-07-24T02:15:22.399Z,23.72
2018-07-24T02:17:50.565Z,23.39
2018-07-24T02:20:18.944Z,23.22
2018-07-24T02:22:48.531Z,23.47
2018-07-24T02:25:17.612Z,23.42
2018-07-24T02:27:45.925Z,23.41
2018-07-24T02:30:14.235Z,23.31
2018-07-24T02:32:42.392Z,23.33
2018-07-24T02:35:10.600Z,23.20
2018-07-24T02:37:38.728Z,23.14
2018-07-24T02:40:07.220Z,23.27
2018-07-24T02:42:35.426Z,23.11
2018-07-24T02:45:03.583Z,23.16
2018-07-24T02:47:31.694Z,22.47
2018-07-24T02:49:59.827Z,22.65
2018-07-24T02:52:27.921Z,22.68
2018-07-24T02:54:56.106Z,22.44
2018-07-24T02:57:24.332Z,22.11
2018-07-24T02:59:52.421Z,21.80
2018-07-24T03:02:20.615Z,22.01
2018-07-24T03:04:48.749Z,22.15
2018-07-24T03:07:17.628Z,22.18
2018-07-24T03:09:45.936Z,22.30
2018-07-24T03:12:14.116Z,22.20
2018-07-24T03:14:42.262Z,21.81
2018-07-24T03:17:10.382Z,21.80
2018-07-24T03:19:38.512Z,21.87
2018-07-24T03:22:06.699Z,22.16
2018-07-24T03:24:34.981Z,22.11
2018-07-24T03:27:03.107Z,21.76
2018-07-24T03:29:31.544Z,21.62
2018-07-24T03:31:59.676Z,21.73
2018-07-24T03:34:27.893Z,21.80
2018-07-24T03:36:56.211Z,21.53
2018-07-24T03:39:24.412Z,21.72
2018-07-24T03:41:52.816Z,21.76
2018-07-24T03:44:21.214Z,21.55
2018-07-24T03:46:49.431Z,21.49
2018-07-24T03:49:18.050Z,21.52
2018-07-24T03:51:46.336Z,21.64
2018-07-24T03:54:14.551Z,21.67
2018-07-24T03:56:42.680Z,21.56
2018-07-24T03:59:10.856Z,21.51
2018-07-24T04:01:39.028Z,21.62
2018-07-24T04:04:07.136Z,21.80
2018-07-24T04:06:35.312Z,21.57
2018-07-24T04:09:04.505Z,21.72
2018-07-24T04:11:32.769Z,21.61
2018-07-24T04:14:00.852Z,21.72
2018-07-24T04:16:28.992Z,21.62
2018-07-24T04:18:57.159Z,21.46
2018-07-24T04:21:25.278Z,21.72
2018-07-24T04:23:53.362Z,21.84
2018-07-24T04:26:21.567Z,21.80
2018-07-24T04:28:49.744Z,21.57
2018-07-24T04:31:18.226Z,21.40
2018-07-24T04:33:46.338Z,21.77
2018-07-24T04:36:14.484Z,21.96
2018-07-24T04:38:42.738Z,21.52
2018-07-24T04:41:10.834Z,21.23
2018-07-24T04:43:38.986Z,21.54
2018-07-24T04:46:07.108Z,21.65
2018-07-24T04:48:35.278Z,21.58
2018-07-24T04:51:03.455Z,22.15
2018-07-24T04:53:31.647Z,21.86
2018-07-24T04:56:00.255Z,21.75
2018-07-24T04:58:28.507Z,21.78
2018-07-24T05:00:56.622Z,21.85
2018-07-24T05:03:24.746Z,21.92
2018-07-24T05:05:52.865Z,21.89
2018-07-24T05:08:21.134Z,21.91
2018-07-24T05:10:49.239Z,22.03
2018-07-24T05:13:18.326Z,21.68
2018-07-24T05:15:46.426Z,21.70
2018-07-24T05:18:14.697Z,22.22
2018-07-24T05:20:42.875Z,22.13
2018-07-24T05:23:11.017Z,22.24
2018-07-24T05:25:39.167Z,22.28
2018-07-24T05:28:07.312Z,22.18
2018-07-24T05:30:35.611Z,22.20
2018-07-24T05:33:03.728Z,22.18
2018-07-24T05:35:31.928Z,22.11
2018-07-24T05:38:01.270Z,22.01
2018-07-24T05:40:29.523Z,22.20
2018-07-24T05:42:58.055Z,22.18
2018-07-24T05:45:26.845Z,21.97
2018-07-24T05:47:55.021Z,22.19
2018-07-24T05:50:23.230Z,22.49
2018-07-24T05:52:51.746Z,22.48
2018-07-24T05:55:19.834Z,22.51
2018-07-24T05:57:48.547Z,22.64
2018-07-24T06:00:16.664Z,22.64
2018-07-24T06:02:45.420Z,22.63
2018-07-24T06:05:13.557Z,22.78
2018-07-24T06:07:41.922Z,23.02
2018-07-24T06:10:10.094Z,22.95
2018-07-24T06:12:38.224Z,23.04
2018-07-24T06:15:06.929Z,23.20
2018-07-24T06:17:35.090Z,23.10
2018-07-24T06:20:03.241Z,23.32
2018-07-24T06:22:31.572Z,23.32
2018-07-24T06:24:59.736Z,23.25
2018-07-24T06:27:27.863Z,23.42
2018-07-24T06:29:56.043Z,23.65
2018-07-24T06:32:24.155Z,23.62
2018-07-24T06:34:52.328Z,23.63
2018-07-24T06:37:20.560Z,23.63
2018-07-24T06:39:48.714Z,23.44
2018-07-24T06:42:16.870Z,23.61
2018-07-24T06:44:45.098Z,23.76
2018-07-24T06:47:13.260Z,23.96
2018-07-24T06:49:41.552Z,23.84
2018-07-24T06:52:09.722Z,23.81
2018-07-24T06:54:38.351Z,23.78
2018-07-24T06:57:06.526Z,23.89
2018-07-24T06:59:34.635Z,23.99
2018-07-24T07:02:02.766Z,24.17
2018-07-24T07:04:30.999Z,24.19
2018-07-24T07:06:59.157Z,24.26
2018-07-24T07:09:27.390Z,24.32
2018-07-24T07:11:55.592Z,24.23
2018-07-24T07:14:24.714Z,24.39
2018-07-24T07:16:53.012Z,24.42
2018-07-24T07:19:21.672Z,24.58
2018-07-24T07:21:49.847Z,24.57
2018-07-24T07:24:19.053Z,24.70
2018-07-24T07:26:47.224Z,24.85
2018-07-24T07:29:15.533Z,24.88
2018-07-24T07:31:43.903Z,24.88
2018-07-24T07:34:12.150Z,24.87
2018-07-24T07:36:40.322Z,24.89
2018-07-24T07:39:10.193Z,25.04
2018-07-24T07:41:38.608Z,25.12
2018-07-24T07:44:06.790Z,25.17
2018-07-24T07:46:35.064Z,25.22
2018-07-24T07:49:03.341Z,25.19
2018-07-24T07:51:32.088Z,25.32
2018-07-24T07:54:00.629Z,25.42
2018-07-24T07:56:29.719Z,25.45
2018-07-24T07:58:57.892Z,25.56
2018-07-24T08:01:27.068Z,25.61
2018-07-24T08:03:55.237Z,25.69
2018-07-24T08:06:23.390Z,25.73
2018-07-24T08:08:51.487Z,25.79
2018-07-24T08:11:19.651Z,25.85
2018-07-24T08:13:47.808Z,25.92
2018-07-24T08:16:16.090Z,25.91
2018-07-24T08:18:44.292Z,25.92
2018-07-24T08:21:12.531Z,25.91
2018-07-24T08:23:40.808Z,25.91
2018-07-24T08:26:09.022Z,25.98
2018-07-24T08:28:37.186Z,26.04
2018-07-24T08:31:05.360Z,26.04
2018-07-24T08:33:33.549Z,26.06
2018-07-24T08:36:01.708Z,26.21
2018-07-24T08:38:30.535Z,26.30
2018-07-24T08:40:59.575Z,26.27
2018-07-24T08:43:27.962Z,26.26
2018-07-24T08:45:56.171Z,26.33
2018-07-24T08:48:24.574Z,26.36
2018-07-24T08:50:52.771Z,26.47
2018-07-24T08:53:21.043Z,26.41
2018-07-24T08:55:49.993Z,26.39
2018-07-24T08:58:20.638Z,26.50
2018-07-24T09:00:51.229Z,26.48
2018-07-24T09:03:19.633Z,26.54
2018-07-24T09:05:48.145Z,26.65
2018-07-24T09:08:16.559Z,26.59
2018-07-24T09:10:44.883Z,26.65
2018-07-24T09:13:13.124Z,26.54
2018-07-24T09:15:41.295Z,26.59
2018-07-24T09:18:09.439Z,26.74
2018-07-24T09:20:37.661Z,26.86
2018-07-24T09:23:05.867Z,26.91
2018-07-24T09:25:34.143Z,26.77
2018-07-24T09:28:02.319Z,26.86
2018-07-24T09:30:30.894Z,26.81
2018-07-24T09:32:59.059Z,26.93
2018-07-24T09:35:27.185Z,27.04
2018-07-24T09:37:55.407Z,27.23
2018-07-24T09:40:23.582Z,27.00
2018-07-24T09:42:51.751Z,27.17
2018-07-24T09:45:19.965Z,27.55
2018-07-24T09:47:49.150Z,27.63
2018-07-24T09:50:17.468Z,27.65
2018-07-24T09:52:45.709Z,27.44
2018-07-24T09:55:13.902Z,27.40
2018-07-24T09:57:42.056Z,27.36
2018-07-24T10:00:10.292Z,27.43
2018-07-24T10:02:38.892Z,27.85
2018-07-24T10:05:07.415Z,27.56
2018-07-24T10:07:35.772Z,27.58
2018-07-24T10:10:03.988Z,27.94
2018-07-24T10:12:32.273Z,27.88
2018-07-24T10:15:00.440Z,27.92
2018-07-24T10:17:28.579Z,28.11
2018-07-24T10:19:56.724Z,27.96
2018-07-24T10:22:24.873Z,27.70
2018-07-24T10:24:52.984Z,27.74
2018-07-24T10:27:21.116Z,27.81
2018-07-24T10:29:49.835Z,27.91
2018-07-24T10:32:17.919Z,27.95
2018-07-24T10:34:46.078Z,28.26
2018-07-24T10:37:14.185Z,28.12
2018-07-24T10:39:42.303Z,28.05
2018-07-24T10:42:10.460Z,28.13
2018-07-24T10:44:38.708Z,28.33
2018-07-24T10:47:06.778Z,28.36
2018-07-24T10:49:34.951Z,28.72
2018-07-24T10:52:03.373Z,29.18
2018-07-24T10:54:31.595Z,28.79
2018-07-24T10:56:59.726Z,28.80
2018-07-24T10:59:27.858Z,29.35
2018-07-24T11:01:55.957Z,29.47
2018-07-24T11:04:24.068Z,29.52
2018-07-24T11:06:52.202Z,29.23
2018-07-24T11:09:20.460Z,29.32
2018-07-24T11:11:48.742Z,29.69
2018-07-24T11:14:17.104Z,29.47
2018-07-24T11:16:45.234Z,29.37
2018-07-24T11:19:13.391Z,29.68
2018-07-24T11:21:41.599Z,29.57
2018-07-24T11:24:09.857Z,29.63
2018-07-24T11:26:38.221Z,29.75
2018-07-24T11:29:06.841Z,30.01
2018-07-24T11:31:34.982Z,30.33
2018-07-24T11:34:03.070Z,30.45
2018-07-24T11:36:31.373Z,30.75
2018-07-24T11:38:59.608Z,31.18
2018-07-24T11:41:28.345Z,31.72
2018-07-24T11:43:56.507Z,32.06
2018-07-24T11:46:24.647Z,32.75
2018-07-24T11:48:52.882Z,32.81
2018-07-24T11:51:21.087Z,33.79
2018-07-24T11:53:50.007Z,34.40
2018-07-24T11:56:18.171Z,33.59
2018-07-24T11:58:46.325Z,32.62
2018-07-24T12:01:14.443Z,34.02
2018-07-24T12:03:42.747Z,35.37
2018-07-24T12:06:12.514Z,36.02
2018-07-24T12:08:40.848Z,36.31
2018-07-24T12:11:09.470Z,37.13
2018-07-24T12:13:38.253Z,37.80
2018-07-24T12:16:06.611Z,37.55
2018-07-24T12:18:35.858Z,37.52
2018-07-24T12:21:04.139Z,38.29
2018-07-24T12:23:32.960Z,39.14
2018-07-24T12:26:02.993Z,39.81
2018-07-24T12:28:31.692Z,39.55
2018-07-24T12:31:00.194Z,39.11
2018-07-24T12:33:29.436Z,40.03
2018-07-24T12:35:57.815Z,41.00
2018-07-24T12:38:26.220Z,40.28
2018-07-24T12:40:54.883Z,41.46
2018-07-24T12:43:23.310Z,40.01
2018-07-24T12:45:51.498Z,41.15
2018-07-24T12:48:20.378Z,41.27
2018-07-24T12:50:48.824Z,42.40
2018-07-24T12:53:17.031Z,41.56
2018-07-24T12:55:45.166Z,41.87
2018-07-24T12:58:15.650Z,43.84
2018-07-24T13:00:43.854Z,42.18
2018-07-24T13:03:12.102Z,43.31
2018-07-24T13:05:40.217Z,44.41
2018-07-24T13:08:08.422Z,45.23
2018-07-24T13:10:37.336Z,42.80
2018-07-24T13:13:05.927Z,42.36
2018-07-24T13:15:34.082Z,43.22
2018-07-24T13:18:02.319Z,44.74
2018-07-24T13:20:30.426Z,45.26
2018-07-24T13:22:58.547Z,44.68
2018-07-24T13:25:26.683Z,42.66
2018-07-24T13:27:54.876Z,40.93
2018-07-24T13:30:24.319Z,41.72
2018-07-24T13:32:52.452Z,44.18
2018-07-24T13:35:20.631Z,43.51
2018-07-24T13:37:49.296Z,44.49
2018-07-24T13:40:17.574Z,42.58
2018-07-24T13:42:46.118Z,43.88
2018-07-24T13:45:14.345Z,44.64
2018-07-24T13:47:43.134Z,46.22
2018-07-24T13:50:11.412Z,42.41
2018-07-24T13:52:39.595Z,43.67
2018-07-24T13:55:08.056Z,44.01
2018-07-24T13:57:36.319Z,45.04
2018-07-24T14:00:05.952Z,45.20
2018-07-24T14:02:34.169Z,45.31
2018-07-24T14:05:02.359Z,45.11
2018-07-24T14:07:30.708Z,45.85
2018-07-24T14:09:59.019Z,43.87
2018-07-24T14:12:27.208Z,45.86
2018-07-24T14:14:55.359Z,44.31
2018-07-24T14:17:23.539Z,44.39
2018-07-24T14:19:51.642Z,45.60
2018-07-24T14:31:42.318Z,44.98
2018-07-24T14:34:10.512Z,45.19
2018-07-24T14:36:38.746Z,46.02
2018-07-24T14:39:09.372Z,43.77
2018-07-24T14:41:37.626Z,43.84
2018-07-24T14:44:05.905Z,43.00
2018-07-24T14:46:34.278Z,45.25
2018-07-24T14:49:02.368Z,46.41
2018-07-24T14:51:30.502Z,44.87
2018-07-24T14:53:58.632Z,45.58
2018-07-24T14:56:26.748Z,45.59
2018-07-24T14:58:54.843Z,45.34
2018-07-24T15:01:23.164Z,45.82
2018-07-24T15:03:51.311Z,45.91
2018-07-24T15:06:19.399Z,44.92
2018-07-24T15:08:47.518Z,44.10
2018-07-24T15:11:15.672Z,42.52
2018-07-24T15:13:44.035Z,42.23
2018-07-24T15:16:12.352Z,43.69
2018-07-24T15:31:40.719Z,45.69
2018-07-24T15:34:09.000Z,44.19
2018-07-24T15:36:37.336Z,43.63
2018-07-24T15:39:08.398Z,42.44
2018-07-24T15:41:36.894Z,42.76
2018-07-24T15:44:05.499Z,41.70
2018-07-24T15:46:33.756Z,44.44
2018-07-24T15:49:01.979Z,43.87
2018-07-24T15:51:30.235Z,44.22
2018-07-24T15:53:58.426Z,43.01
2018-07-24T15:56:26.624Z,44.36
2018-07-24T15:58:54.782Z,43.98
2018-07-24T16:01:29.316Z,44.10
2018-07-24T16:03:57.483Z,43.26
2018-07-24T16:06:25.611Z,44.75
2018-07-24T16:08:54.153Z,45.01
2018-07-24T16:11:22.358Z,43.73
2018-07-24T16:13:51.202Z,43.85
2018-07-24T16:16:19.529Z,43.79
2018-07-24T16:18:47.772Z,42.89
2018-07-24T16:21:16.411Z,41.20
2018-07-24T16:23:44.806Z,40.20
2018-07-24T16:26:13.338Z,39.73
2018-07-24T16:28:41.743Z,39.82
2018-07-24T16:31:10.334Z,38.86
2018-07-24T16:33:38.735Z,38.34
2018-07-24T16:36:07.068Z,38.94
2018-07-24T16:38:35.302Z,38.47
2018-07-24T16:41:03.587Z,37.85
2018-07-24T16:43:31.930Z,38.28
2018-07-24T16:46:00.838Z,37.97
2018-07-24T16:48:29.138Z,38.51
2018-07-24T16:50:57.315Z,37.65
2018-07-24T16:53:25.700Z,37.76
2018-07-24T16:55:54.036Z,37.74
2018-07-24T16:58:22.292Z,37.74
2018-07-24T17:01:45.420Z,37.99
2018-07-24T17:04:13.704Z,37.74
2018-07-24T17:06:42.386Z,36.87
2018-07-24T17:09:11.847Z,37.35
2018-07-24T17:11:40.586Z,36.83
2018-07-24T17:14:09.012Z,36.38
2018-07-24T17:16:37.543Z,36.90
2018-07-24T17:19:05.789Z,36.54
2018-07-24T17:21:33.959Z,36.94
2018-07-24T17:24:02.273Z,36.82
2018-07-24T17:26:37.351Z,36.63
2018-07-24T17:29:05.847Z,36.72
2018-07-24T17:31:34.983Z,36.58
2018-07-24T17:34:03.326Z,36.52
2018-07-24T17:36:31.482Z,36.14
2018-07-24T17:38:59.736Z,36.02
2018-07-24T17:41:27.883Z,36.18
2018-07-24T17:43:56.254Z,36.42
2018-07-24T17:46:24.535Z,35.81
2018-07-24T17:48:52.837Z,35.93
2018-07-24T17:51:22.709Z,35.78
2018-07-24T17:53:51.070Z,35.76
2018-07-24T17:56:19.175Z,35.50
2018-07-24T17:58:47.287Z,35.74
2018-07-24T18:01:15.525Z,35.74
2018-07-24T18:03:43.690Z,35.82
2018-07-24T18:06:11.833Z,35.61
2018-07-24T18:08:40.021Z,35.78
2018-07-24T18:11:08.149Z,35.47
2018-07-24T18:13:36.305Z,35.19
2018-07-24T18:16:04.654Z,35.37
2018-07-24T18:18:33.832Z,35.57
2018-07-24T18:21:01.933Z,35.38
2018-07-24T18:23:30.331Z,35.25
2018-07-24T18:25:58.428Z,35.14
2018-07-24T18:28:26.686Z,35.28
2018-07-24T18:30:55.757Z,35.14
2018-07-24T18:33:24.273Z,35.09
2018-07-24T18:35:52.341Z,35.07
2018-07-24T18:38:20.505Z,34.95
2018-07-24T18:40:48.669Z,34.89
2018-07-24T18:43:16.955Z,34.73
2018-07-24T18:45:45.186Z,34.70
2018-07-24T18:48:13.727Z,34.37
2018-07-24T18:50:42.362Z,34.04
2018-07-24T18:53:10.595Z,34.33
2018-07-24T18:55:39.283Z,33.87
2018-07-24T18:58:07.444Z,33.88
2018-07-24T19:00:35.657Z,33.94
2018-07-24T19:03:03.905Z,33.94
2018-07-24T19:05:32.300Z,33.66
2018-07-24T19:08:00.513Z,33.86
2018-07-24T19:10:28.966Z,33.58
2018-07-24T19:12:57.109Z,33.64
2018-07-24T19:15:25.414Z,33.68
2018-07-24T19:17:54.235Z,33.38
2018-07-24T19:20:22.386Z,33.46
2018-07-24T19:22:50.658Z,33.60
2018-07-24T19:25:20.032Z,33.49
2018-07-24T19:27:48.301Z,33.17
2018-07-24T19:30:16.601Z,33.05
2018-07-24T19:32:44.830Z,32.27
2018-07-24T19:35:13.103Z,32.18
2018-07-24T19:37:41.512Z,32.28
2018-07-24T19:40:10.305Z,32.49
2018-07-24T19:42:38.701Z,32.87
2018-07-24T19:45:07.293Z,32.47
2018-07-24T19:47:35.635Z,32.43
2018-07-24T19:50:04.042Z,32.17
2018-07-24T19:52:32.261Z,32.22
2018-07-24T19:55:00.643Z,31.86
2018-07-24T19:57:28.815Z,31.70
2018-07-24T19:59:56.926Z,31.59
2018-07-24T20:02:25.060Z,31.53
2018-07-24T20:04:53.424Z,31.62
2018-07-24T20:07:22.782Z,31.76
2018-07-24T20:09:51.648Z,31.91
2018-07-24T20:12:20.718Z,31.88
2018-07-24T20:14:49.101Z,31.61
2018-07-24T20:17:17.527Z,31.46
2018-07-24T20:19:45.777Z,31.49
2018-07-24T20:22:13.942Z,31.44
2018-07-24T20:24:43.124Z,30.75
2018-07-24T20:27:11.556Z,31.15
2018-07-24T20:29:39.831Z,31.12
2018-07-24T20:32:08.110Z,30.86
2018-07-24T20:34:36.411Z,31.23
2018-07-24T20:37:04.666Z,31.09
2018-07-24T20:39:33.062Z,30.83
2018-07-24T20:42:01.474Z,30.94
2018-07-24T20:44:29.952Z,30.91
2018-07-24T20:46:58.138Z,30.62
2018-07-24T20:49:26.370Z,30.59
2018-07-24T20:51:54.987Z,30.78
2018-07-24T20:54:23.394Z,30.64
2018-07-24T21:01:41.876Z,30.45
2018-07-24T21:04:10.019Z,30.42
2018-07-24T21:06:38.128Z,30.53
2018-07-24T21:09:08.514Z,30.48
2018-07-24T21:11:37.557Z,30.37
2018-07-24T21:14:05.887Z,30.52
2018-07-24T21:16:35.595Z,30.31
2018-07-24T21:19:03.796Z,30.05
2018-07-24T21:21:32.160Z,29.82
2018-07-24T21:24:00.995Z,29.90
2018-07-24T21:26:30.730Z,29.93
2018-07-24T21:28:58.987Z,29.85
2018-07-24T21:31:27.098Z,29.51
2018-07-24T21:33:55.226Z,29.84
2018-07-24T21:36:23.459Z,29.67
2018-07-24T21:38:52.546Z,29.96
2018-07-24T21:41:20.793Z,29.95
2018-07-24T21:43:48.899Z,29.64
2018-07-24T21:46:17.068Z,29.06
2018-07-24T21:48:45.193Z,29.33
2018-07-24T21:51:13.356Z,29.25
2018-07-24T21:53:41.730Z,29.11
2018-07-24T21:56:09.882Z,29.29
2018-07-24T21:58:38.156Z,29.29
2018-07-24T22:01:11.655Z,28.62
2018-07-24T22:03:39.818Z,28.94
2018-07-24T22:06:08.393Z,29.06
2018-07-24T22:08:36.733Z,29.14
2018-07-24T22:11:04.917Z,28.86
2018-07-24T22:13:33.138Z,28.73
2018-07-24T22:16:01.232Z,28.61
2018-07-24T22:18:29.456Z,28.21
2018-07-24T22:20:57.609Z,28.28
2018-07-24T22:23:25.803Z,28.34
2018-07-24T22:25:53.951Z,28.37
2018-07-24T22:28:23.191Z,28.65
2018-07-24T22:30:51.357Z,29.00
2018-07-24T22:33:19.662Z,28.53
2018-07-24T22:35:47.844Z,28.17
2018-07-24T22:38:15.958Z,28.30
2018-07-24T22:40:44.129Z,28.44
2018-07-24T22:45:46.753Z,28.64
2018-07-24T22:48:15.077Z,28.68
2018-07-24T22:50:43.350Z,28.63
2018-07-24T22:53:12.156Z,28.56
2018-07-24T22:55:40.368Z,28.50
2018-07-24T22:58:08.511Z,28.53
2018-07-24T23:00:36.820Z,28.51
2018-07-24T23:03:05.578Z,28.67
2018-07-24T23:05:33.919Z,28.51
2018-07-24T23:08:02.114Z,28.40
2018-07-24T23:10:32.730Z,28.30
2018-07-24T23:13:02.129Z,28.15
2018-07-24T23:15:30.304Z,28.12
2018-07-24T23:17:58.444Z,28.13
2018-07-24T23:20:27.230Z,28.21
2018-07-24T23:22:55.351Z,28.08
2018-07-24T23:25:24.073Z,28.05
2018-07-24T23:27:54.708Z,27.92
2018-07-24T23:30:23.495Z,27.69
2018-07-24T23:32:51.663Z,27.51
2018-07-24T23:35:19.870Z,27.66
2018-07-24T23:37:48.538Z,27.57
2018-07-24T23:40:16.700Z,27.46
2018-07-24T23:42:44.820Z,27.61
2018-07-24T23:45:12.968Z,27.56
2018-07-24T23:47:41.217Z,27.57
2018-07-24T23:50:09.321Z,27.51
2018-07-24T23:52:37.494Z,27.18
2018-07-24T23:55:05.690Z,27.20
2018-07-24T23:57:34.046Z,27.12
